General Mitchell International Airport
KMKE : now visible

Airfield :











YOU CAN JOIN US ON...

 
LOGIN :

Register | Disclaimer

   EN    FR    IT 

 









Legend :    VFR   Marginal VFR   IFR   Intensive IFR   Very Intensive IFR
Visi :
Ceiling :
>= 8 km
>= 3000ft
5 to 8 km
1000 to 3000 ft
1500m to 5 km
500 to 1000 ft
800 to 1500m
200 to 500 ft
< 800m
< 200 ft
Symbols :   Thunderstorms  Fog  Heavy snow  Heavy precipitations  Wind > 20 kt






- Airport Elevation : 723 ft
- IATA code : MKE


KMKE - General Mitchell International

CURRENT METAR :
  • 020952Z 30007KT 10SM FEW250 20/12 A3001 RMK AO2 SLP158 T02000122

EXPIRED METARs :
  • 020852Z 29006KT 10SM CLR 21/13 A2999 RMK AO2 SLP151 T02060128 53004
  • 012152Z 00000KT 10SM FEW050 BKN200 BKN250 24/11 A2996 RMK AO2 SLP142 T02440111
  • 020752Z 28004KT 10SM FEW250 20/13 A2998 RMK AO2 SLP150 T02000133

TAF KMKE
Valid from the 02 at 09:00 until the 03 at 12:00 UTC


020903Z 0209/0312 28005KT P6SM SKC
FM021200 31006KT P6SM FEW250
FM021600 06006KT P6SM SCT250
FM021800 12008KT P6SM BKN250
FM030000 23006KT P6SM BKN120
FM030400 VRB03KT P6SM SCT250
KZAU FIR / North America



MET'MAP, your aeronautical weather chart ! - Copyright ORBIFLY December 2007 - Disclaimer

ORBIFLY MET'MAP TEAM :

Programming & Development : Alexandra Zaïnal
Original concept : Baudouin d'Aumeries
Technical & hardware support : Manuel Goepfert
Assistance : Marc-Olivier Méhu




SOURCES & CREDITS :

   NOAA       Earth
Advisory